Time,TemperatureF,DewpointF,PressureIn,WindDirection,WindDirectionDegrees,WindSpeedMPH,WindSpeedGustMPH,Humidity,HourlyPrecipIn,Conditions,Clouds,dailyrainin,SolarRadiationWatts/m^2,SoftwareType,DateUTC
2013-03-24 00:02:00,27.0,16.0,-100.00,North,3,0.0,2.0,64,0.00,,,0.00,1.000000,,2013-03-24 07:02:00,
2013-03-24 00:11:00,27.0,16.0,-100.00,North,3,0.0,2.0,64,0.00,,,0.00,1.000000,,2013-03-24 07:11:00,
2013-03-24 00:22:00,27.0,16.0,-100.00,North,3,0.0,2.0,64,0.00,,,0.00,1.000000,,2013-03-24 07:22:00,
2013-03-24 00:42:00,26.0,14.0,-100.00,NNE,17,0.0,2.0,59,0.00,,,0.00,1.000000,,2013-03-24 07:42:00,
2013-03-24 00:52:00,26.0,14.0,-100.00,NNE,17,0.0,2.0,59,0.00,,,0.00,1.000000,,2013-03-24 07:52:00,
2013-03-24 01:02:00,26.0,14.0,-100.00,NNE,17,0.0,2.0,59,0.00,,,0.00,1.000000,,2013-03-24 08:02:00,
2013-03-24 01:12:00,26.0,14.0,-100.00,NNE,17,0.0,2.0,59,0.00,,,0.00,1.000000,,2013-03-24 08:12:00,
2013-03-24 01:21:00,26.0,14.0,-100.00,NNE,17,0.0,2.0,59,0.00,,,0.00,1.000000,,2013-03-24 08:21:00,
2013-03-24 01:42:00,26.0,14.0,-100.00,NE,37,0.0,4.0,60,0.00,,,0.00,1.000000,,2013-03-24 08:42:00,
2013-03-24 01:52:00,26.0,14.0,-100.00,NE,37,0.0,4.0,60,0.00,,,0.00,1.000000,,2013-03-24 08:52:00,
2013-03-24 02:02:00,26.0,14.0,-100.00,NE,37,0.0,4.0,60,0.00,,,0.00,1.000000,,2013-03-24 09:02:00,
2013-03-24 02:12:00,26.0,14.0,-100.00,NE,37,0.0,4.0,60,0.00,,,0.00,1.000000,,2013-03-24 09:12:00,
2013-03-24 02:21:00,26.0,14.0,-100.00,NE,37,0.0,4.0,60,0.00,,,0.00,1.000000,,2013-03-24 09:21:00,
2013-03-24 02:52:00,26.0,14.0,-100.00,NE,42,1.0,2.0,60,0.00,,,0.00,1.000000,,2013-03-24 09:52:00,
2013-03-24 03:02:00,26.0,14.0,-100.00,NE,42,1.0,2.0,60,0.00,,,0.00,1.000000,,2013-03-24 10:02:00,
2013-03-24 03:12:00,26.0,14.0,-100.00,NE,42,1.0,2.0,60,0.00,,,0.00,1.000000,,2013-03-24 10:12:00,
2013-03-24 03:22:00,26.0,14.0,-100.00,NE,42,1.0,2.0,60,0.00,,,0.00,1.000000,,2013-03-24 10:22:00,
2013-03-24 03:52:00,25.0,16.0,-100.00,NE,37,0.0,2.0,68,0.00,,,0.00,1.000000,,2013-03-24 10:52:00,
2013-03-24 04:02:00,25.0,16.0,-100.00,NE,37,0.0,2.0,68,0.00,,,0.00,1.000000,,2013-03-24 11:02:00,
2013-03-24 04:12:00,25.0,16.0,-100.00,NE,37,0.0,2.0,68,0.00,,,0.00,1.000000,,2013-03-24 11:12:00,
2013-03-24 04:22:00,25.0,16.0,-100.00,NE,37,0.0,2.0,68,0.00,,,0.00,1.000000,,2013-03-24 11:22:00,
2013-03-24 04:42:00,24.0,16.0,-100.00,NE,37,0.0,2.0,71,0.00,,,0.00,1.000000,,2013-03-24 11:42:00,
2013-03-24 04:52:00,24.0,16.0,-100.00,NE,37,0.0,2.0,71,0.00,,,0.00,1.000000,,2013-03-24 11:52:00,
2013-03-24 05:02:00,24.0,16.0,-100.00,NE,37,0.0,2.0,71,0.00,,,0.00,1.000000,,2013-03-24 12:02:00,
2013-03-24 05:12:00,24.0,16.0,-100.00,NE,37,0.0,2.0,71,0.00,,,0.00,1.000000,,2013-03-24 12:12:00,
2013-03-24 05:21:00,24.0,16.0,-100.00,NE,37,0.0,2.0,71,0.00,,,0.00,1.000000,,2013-03-24 12:21:00,
2013-03-24 05:52:00,24.0,16.0,-100.00,West,259,1.0,2.0,71,0.00,,,0.00,1.000000,,2013-03-24 12:52:00,
2013-03-24 06:12:00,24.0,16.0,-100.00,West,259,1.0,2.0,71,0.00,,,0.00,1.000000,,2013-03-24 13:12:00,
2013-03-24 06:22:00,24.0,16.0,-100.00,West,259,1.0,2.0,71,0.00,,,0.00,1.000000,,2013-03-24 13:22:00,
2013-03-24 06:43:00,25.0,16.0,-100.00,NE,38,2.0,2.0,69,0.00,,,0.00,1.000000,,2013-03-24 13:43:00,
2013-03-24 06:52:00,25.0,16.0,-100.00,NE,38,2.0,2.0,69,0.00,,,0.00,1.000000,,2013-03-24 13:52:00,
2013-03-24 07:02:00,25.0,16.0,-100.00,NE,38,2.0,2.0,69,0.00,,,0.00,1.000000,,2013-03-24 14:02:00,
2013-03-24 07:12:00,25.0,16.0,-100.00,NE,38,2.0,2.0,69,0.00,,,0.00,1.000000,,2013-03-24 14:12:00,
2013-03-24 07:21:00,25.0,16.0,-100.00,NE,38,2.0,2.0,69,0.00,,,0.00,1.000000,,2013-03-24 14:21:00,
2013-03-24 07:42:00,24.0,17.0,-100.00,ENE,63,1.0,3.0,74,0.00,,,0.00,4.000000,,2013-03-24 14:42:00,
2013-03-24 07:52:00,24.0,17.0,-100.00,ENE,63,1.0,3.0,74,0.00,,,0.00,4.000000,,2013-03-24 14:52:00,
2013-03-24 08:02:00,24.0,17.0,-100.00,ENE,63,1.0,3.0,74,0.00,,,0.00,4.000000,,2013-03-24 15:02:00,
2013-03-24 08:12:00,24.0,17.0,-100.00,ENE,63,1.0,3.0,74,0.00,,,0.00,4.000000,,2013-03-24 15:12:00,
2013-03-24 08:22:00,24.0,17.0,-100.00,ENE,63,1.0,3.0,74,0.00,,,0.00,4.000000,,2013-03-24 15:22:00,
2013-03-24 08:53:00,26.0,18.0,-100.00,ENE,73,1.0,3.0,72,0.00,,,0.00,63.000000,,2013-03-24 15:53:00,
2013-03-24 09:02:00,26.0,18.0,-100.00,ENE,73,1.0,3.0,72,0.00,,,0.00,63.000000,,2013-03-24 16:02:00,
2013-03-24 09:12:00,26.0,18.0,-100.00,ENE,73,1.0,3.0,72,0.00,,,0.00,63.000000,,2013-03-24 16:12:00,
2013-03-24 09:22:00,26.0,18.0,-100.00,ENE,73,1.0,3.0,72,0.00,,,0.00,63.000000,,2013-03-24 16:22:00,
2013-03-24 09:52:00,29.0,18.0,-100.00,NNE,27,2.0,6.0,63,0.00,,,0.00,160.000000,,2013-03-24 16:52:00,
2013-03-24 10:02:00,29.0,18.0,-100.00,NNE,27,2.0,6.0,63,0.00,,,0.00,160.000000,,2013-03-24 17:02:00,
2013-03-24 10:12:00,29.0,18.0,-100.00,NNE,27,2.0,6.0,63,0.00,,,0.00,160.000000,,2013-03-24 17:12:00,
2013-03-24 10:22:00,29.0,18.0,-100.00,NNE,27,2.0,6.0,63,0.00,,,0.00,160.000000,,2013-03-24 17:22:00,
2013-03-24 10:53:00,32.0,19.0,-100.00,East,83,2.0,5.0,58,0.00,,,0.00,207.000000,,2013-03-24 17:53:00,
2013-03-24 11:12:00,32.0,19.0,-100.00,East,83,2.0,5.0,58,0.00,,,0.00,207.000000,,2013-03-24 18:12:00,
2013-03-24 11:22:00,32.0,19.0,-100.00,East,83,2.0,5.0,58,0.00,,,0.00,207.000000,,2013-03-24 18:22:00,
2013-03-24 11:52:00,37.0,20.0,-100.00,ENE,66,2.0,6.0,50,0.00,,,0.00,412.000000,,2013-03-24 18:52:00,
2013-03-24 12:02:00,37.0,20.0,-100.00,ENE,66,2.0,6.0,50,0.00,,,0.00,412.000000,,2013-03-24 19:02:00,
2013-03-24 12:12:00,37.0,20.0,-100.00,ENE,66,2.0,6.0,50,0.00,,,0.00,412.000000,,2013-03-24 19:12:00,
2013-03-24 12:22:00,37.0,20.0,-100.00,ENE,66,2.0,6.0,50,0.00,,,0.00,412.000000,,2013-03-24 19:22:00,
2013-03-24 12:53:00,40.0,22.0,-100.00,NE,46,3.0,8.0,48,0.00,,,0.00,558.000000,,2013-03-24 19:53:00,
2013-03-24 13:02:00,40.0,22.0,-100.00,NE,46,3.0,8.0,48,0.00,,,0.00,558.000000,,2013-03-24 20:02:00,
2013-03-24 13:12:00,40.0,22.0,-100.00,NE,46,3.0,8.0,48,0.00,,,0.00,558.000000,,2013-03-24 20:12:00,
2013-03-24 13:22:00,40.0,22.0,-100.00,NE,46,3.0,8.0,48,0.00,,,0.00,558.000000,,2013-03-24 20:22:00,
2013-03-24 13:43:00,45.0,23.0,-100.00,NE,49,4.0,7.0,42,0.00,,,0.00,611.000000,,2013-03-24 20:43:00,
2013-03-24 13:53:00,45.0,23.0,-100.00,NE,49,4.0,7.0,42,0.00,,,0.00,611.000000,,2013-03-24 20:53:00,
2013-03-24 14:02:00,45.0,23.0,-100.00,NE,49,4.0,7.0,42,0.00,,,0.00,611.000000,,2013-03-24 21:02:00,
2013-03-24 14:11:00,45.0,23.0,-100.00,NE,49,4.0,7.0,42,0.00,,,0.00,611.000000,,2013-03-24 21:11:00,
2013-03-24 14:22:00,45.0,23.0,-100.00,NE,49,4.0,7.0,42,0.00,,,0.00,611.000000,,2013-03-24 21:22:00,
2013-03-24 14:53:00,46.0,24.0,-100.00,NNE,18,4.0,9.0,42,0.00,,,0.00,576.000000,,2013-03-24 21:53:00,
2013-03-24 15:02:00,46.0,24.0,-100.00,NNE,18,4.0,9.0,42,0.00,,,0.00,576.000000,,2013-03-24 22:02:00,
2013-03-24 15:12:00,46.0,24.0,-100.00,NNE,18,4.0,9.0,42,0.00,,,0.00,576.000000,,2013-03-24 22:12:00,
2013-03-24 15:22:00,46.0,24.0,-100.00,NNE,18,4.0,9.0,42,0.00,,,0.00,576.000000,,2013-03-24 22:22:00,
2013-03-24 15:52:00,44.0,23.0,-100.00,NE,56,3.0,9.0,43,0.00,,,0.00,429.000000,,2013-03-24 22:52:00,
2013-03-24 16:02:00,44.0,23.0,-100.00,NE,56,3.0,9.0,43,0.00,,,0.00,429.000000,,2013-03-24 23:02:00,
2013-03-24 16:12:00,44.0,23.0,-100.00,NE,56,3.0,9.0,43,0.00,,,0.00,429.000000,,2013-03-24 23:12:00,
2013-03-24 16:22:00,44.0,23.0,-100.00,NE,56,3.0,9.0,43,0.00,,,0.00,429.000000,,2013-03-24 23:22:00,
2013-03-24 16:42:00,43.0,23.0,-100.00,NNE,24,3.0,9.0,45,0.00,,,0.00,281.000000,,2013-03-24 23:42:00,
2013-03-24 16:52:00,43.0,23.0,-100.00,NNE,24,3.0,9.0,45,0.00,,,0.00,281.000000,,2013-03-24 23:52:00,
2013-03-24 17:02:00,43.0,23.0,-100.00,NNE,24,3.0,9.0,45,0.00,,,0.00,281.000000,,2013-03-25 00:02:00,
2013-03-24 17:12:00,43.0,23.0,-100.00,NNE,24,3.0,9.0,45,0.00,,,0.00,281.000000,,2013-03-25 00:12:00,
2013-03-24 17:22:00,43.0,23.0,-100.00,NNE,24,3.0,9.0,45,0.00,,,0.00,281.000000,,2013-03-25 00:22:00,
2013-03-24 17:43:00,42.0,22.0,-100.00,North,1,4.0,7.0,45,0.00,,,0.00,223.000000,,2013-03-25 00:43:00,
2013-03-24 17:52:00,42.0,22.0,-100.00,North,1,4.0,7.0,45,0.00,,,0.00,223.000000,,2013-03-25 00:52:00,
2013-03-24 18:02:00,42.0,22.0,-100.00,North,1,4.0,7.0,45,0.00,,,0.00,223.000000,,2013-03-25 01:02:00,
2013-03-24 18:12:00,42.0,22.0,-100.00,North,1,4.0,7.0,45,0.00,,,0.00,223.000000,,2013-03-25 01:12:00,
2013-03-24 18:21:00,42.0,22.0,-100.00,North,1,4.0,7.0,45,0.00,,,0.00,223.000000,,2013-03-25 01:21:00,
2013-03-24 18:52:00,40.0,22.0,-100.00,North,357,3.0,7.0,48,0.00,,,0.00,109.000000,,2013-03-25 01:52:00,
2013-03-24 19:02:00,40.0,22.0,-100.00,North,357,3.0,7.0,48,0.00,,,0.00,109.000000,,2013-03-25 02:02:00,
2013-03-24 19:22:00,40.0,22.0,-100.00,North,357,3.0,7.0,48,0.00,,,0.00,109.000000,,2013-03-25 02:22:00,
2013-03-24 19:52:00,36.0,22.0,-100.00,West,275,2.0,7.0,57,0.00,,,0.00,34.000000,,2013-03-25 02:52:00,
2013-03-24 20:02:00,36.0,22.0,-100.00,West,275,2.0,7.0,57,0.00,,,0.00,34.000000,,2013-03-25 03:02:00,
2013-03-24 20:12:00,36.0,22.0,-100.00,West,275,2.0,7.0,57,0.00,,,0.00,34.000000,,2013-03-25 03:12:00,
2013-03-24 20:22:00,36.0,22.0,-100.00,West,275,2.0,7.0,57,0.00,,,0.00,34.000000,,2013-03-25 03:22:00,
2013-03-24 20:43:00,34.0,22.0,-100.00,ESE,109,1.0,4.0,62,0.00,,,0.00,1.000000,,2013-03-25 03:43:00,
2013-03-24 20:53:00,34.0,22.0,-100.00,ESE,109,1.0,4.0,62,0.00,,,0.00,1.000000,,2013-03-25 03:53:00,
2013-03-24 21:02:00,34.0,22.0,-100.00,ESE,109,1.0,4.0,62,0.00,,,0.00,1.000000,,2013-03-25 04:02:00,
2013-03-24 21:12:00,34.0,22.0,-100.00,ESE,109,1.0,4.0,62,0.00,,,0.00,1.000000,,2013-03-25 04:12:00,
2013-03-24 21:22:00,34.0,22.0,-100.00,ESE,109,1.0,4.0,62,0.00,,,0.00,1.000000,,2013-03-25 04:22:00,
2013-03-24 21:52:00,33.0,23.0,-100.00,SE,130,1.0,5.0,65,0.00,,,0.00,1.000000,,2013-03-25 04:52:00,
2013-03-24 22:02:00,33.0,23.0,-100.00,SE,130,1.0,5.0,65,0.00,,,0.00,1.000000,,2013-03-25 05:02:00,
2013-03-24 22:12:00,33.0,23.0,-100.00,SE,130,1.0,5.0,65,0.00,,,0.00,1.000000,,2013-03-25 05:12:00,
2013-03-24 22:22:00,33.0,23.0,-100.00,SE,130,1.0,5.0,65,0.00,,,0.00,1.000000,,2013-03-25 05:22:00,
2013-03-24 22:52:00,33.0,24.0,-100.00,East,85,0.0,3.0,68,0.00,,,0.00,1.000000,,2013-03-25 05:52:00,
2013-03-24 23:02:00,33.0,24.0,-100.00,East,85,0.0,3.0,68,0.00,,,0.00,1.000000,,2013-03-25 06:02:00,
2013-03-24 23:12:00,33.0,24.0,-100.00,East,85,0.0,3.0,68,0.00,,,0.00,1.000000,,2013-03-25 06:12:00,
2013-03-24 23:22:00,33.0,24.0,-100.00,East,85,0.0,3.0,68,0.00,,,0.00,1.000000,,2013-03-25 06:22:00,
2013-03-24 23:42:00,32.0,23.0,-100.00,NNE,28,0.0,2.0,69,0.00,,,0.00,1.000000,,2013-03-25 06:42:00,
2013-03-24 23:52:00,32.0,23.0,-100.00,NNE,28,0.0,2.0,69,0.00,,,0.00,1.000000,,2013-03-25 06:52:00,